Decoded Metar for FMEP (ST.-PIERRE in REUNION ISLAND) (IATA:ZSE) | Meteo·Mobile Aviation Weather
aviador You're here:

FMEP Decoded Metar

ST.-PIERRE in REUNION ISLAND
Report Time2019-07-23 03:00:00
UTC Time2019-07-23 03:18:05
Flight Rules vfr VFR
Wind030° at 10 kt
W.Decomp.*RWY 33: 1.7 kt HW 9.8 kt RCW
Visibility9999 m
Phenomena:Shower Rain
Clouds:Few 018 Hf
Broken TCU 020 Hf
Broken 042 Hf
Broken 062 Hf
Expected CloudBase > 1,200 ft AGL from Temp-Dew spread
Ceiling4,200 ft
Temp17°C (ISA +2)
Dew Point14°C (83% RH)
AAT14.7°C
QNH1017 hPa
Density Alt528 ft
Elevation174 ft
Report Wrong Elevation
Raw Report
FMEP 230300Z AUTO 03010KT 9999 FEW018 BKN042 BKN062 17/14 Q1017
TEMPO 4500 SHRA BKN020TCU BECMG 14020G35KT=

Extra information for FMEP:More info

Metar Taf Metar & Taf Last 4 Metars F.Rules Stats Wind Profile Meteogram Temp Stats Airport Information Weather charts Add Link Nearby VenuesMetar ALERT Operation Metar Decoded Social comments